Terminal Aerodrome Forecast
Issued by NWS

Current Version | Previous Version | Text Only | Print | Product List | Glossary Off
Versions: 1 2 3 4 5 6 7 8 9 10 11 12 13 14 15

000
FTUS41 KPBZ 171424 AAA
TAFMGW
TAF AMD
KMGW 171424Z 1714/1812 25005KT P6SM OVC015
      TEMPO 1714/1717 1 1/2SM -SN
     FM171700 29005KT P6SM BKN025
     FM180000 25004KT P6SM SCT025=

USA.gov is the U.S. government's official web portal to all federal, state and local government web resources and services.